Time;durP1;ratioP1;P1;durP2;ratioP2;P2;SDS_P1;SDS_P2;PMS_P1;PMS_P2;Temp;Humidity;BMP_temperature;BMP_pressure;BME280_temperature;BME280_humidity;BME280_pressure;Samples;Min_cycle;Max_cycle;Signal;HPM_P1;HPM_P2
2022/06/27 00:02:16;;;;;;;0.05;0.05;;;18.80;99.90;;;;;;4975149;28;20163;-75
2022/06/27 00:04:41;;;;;;;0.00;0.00;;;18.70;99.90;;;;;;4973802;28;20543;-74
2022/06/27 00:07:07;;;;;;;0.00;0.00;;;18.50;99.90;;;;;;4974846;28;20027;-74
2022/06/27 00:09:33;;;;;;;1.17;0.52;;;18.40;99.90;;;;;;4975009;28;20086;-74
2022/06/27 00:11:59;;;;;;;0.22;0.22;;;18.30;99.90;;;;;;4974787;28;20031;-74
2022/06/27 00:14:26;;;;;;;0.13;0.05;;;18.20;99.90;;;;;;4974662;28;20085;-74
2022/06/27 00:16:52;;;;;;;0.38;0.38;;;18.10;99.90;;;;;;4974104;28;20039;-75
2022/06/27 00:19:18;;;;;;;0.52;0.35;;;18.00;99.90;;;;;;4975164;28;20093;-74
2022/06/27 00:21:44;;;;;;;0.13;0.13;;;18.00;99.90;;;;;;4973672;28;20031;-74
2022/06/27 00:24:10;;;;;;;0.20;0.10;;;18.10;99.90;;;;;;4974608;28;20482;-74
2022/06/27 00:26:36;;;;;;;0.00;0.00;;;18.10;99.90;;;;;;4973595;28;20065;-73
2022/06/27 00:29:02;;;;;;;0.32;0.32;;;18.10;99.90;;;;;;4973527;28;20403;-73
2022/06/27 00:31:28;;;;;;;0.00;0.00;;;18.10;99.90;;;;;;4973413;28;20035;-73
2022/06/27 00:33:53;;;;;;;4.95;1.08;;;18.20;99.90;;;;;;4973162;28;20081;-73
2022/06/27 00:36:19;;;;;;;0.00;0.00;;;18.30;99.90;;;;;;4973387;28;20807;-73
2022/06/27 00:38:45;;;;;;;0.00;0.00;;;18.30;99.90;;;;;;4973619;28;20042;-73
2022/06/27 00:41:11;;;;;;;0.00;0.00;;;18.30;99.90;;;;;;4973283;28;20486;-73
2022/06/27 00:43:36;;;;;;;0.00;0.00;;;18.30;99.90;;;;;;4989272;28;20038;-73
2022/06/27 00:46:02;;;;;;;0.10;0.10;;;18.20;99.90;;;;;;4974141;28;20030;-73
2022/06/27 00:48:28;;;;;;;0.00;0.00;;;18.10;99.90;;;;;;4973131;28;20154;-73
2022/06/27 00:50:56;;;;;;;0.00;0.00;;;18.20;99.90;;;;;;4973257;28;20027;-74
2022/06/27 00:53:23;;;;;;;0.00;0.00;;;18.20;99.90;;;;;;4973078;28;20073;-73
2022/06/27 00:55:49;;;;;;;0.20;0.20;;;18.10;99.90;;;;;;4972697;28;20039;-73
2022/06/27 00:58:15;;;;;;;0.00;0.00;;;18.20;99.90;;;;;;4973239;28;20037;-73
2022/06/27 01:00:41;;;;;;;0.00;0.00;;;18.10;99.90;;;;;;4972886;28;20043;-73
2022/06/27 01:03:06;;;;;;;0.00;0.00;;;18.10;99.90;;;;;;4973501;28;20148;-73
2022/06/27 01:05:32;;;;;;;0.73;0.40;;;18.10;99.90;;;;;;4967295;28;20034;-72
2022/06/27 01:07:58;;;;;;;0.00;0.00;;;18.20;99.90;;;;;;4987175;28;20034;-73
2022/06/27 01:10:24;;;;;;;0.00;0.00;;;18.30;99.90;;;;;;4973598;28;20031;-73
2022/06/27 01:12:50;;;;;;;0.00;0.00;;;18.20;99.90;;;;;;4973725;28;20034;-73
2022/06/27 01:15:16;;;;;;;0.10;0.10;;;18.30;99.90;;;;;;4988235;28;20113;-73
2022/06/27 01:17:42;;;;;;;0.13;0.13;;;18.20;99.90;;;;;;4988568;28;20039;-73
2022/06/27 01:20:09;;;;;;;0.00;0.00;;;18.40;99.90;;;;;;4989031;28;20541;-73
2022/06/27 01:22:34;;;;;;;0.00;0.00;;;18.30;99.90;;;;;;4973578;28;20156;-73
2022/06/27 01:25:00;;;;;;;1.40;0.90;;;18.30;99.90;;;;;;4973368;28;20031;-73
2022/06/27 01:27:26;;;;;;;2.83;0.57;;;18.40;99.90;;;;;;4973609;28;20035;-73
2022/06/27 01:29:52;;;;;;;0.00;0.00;;;18.40;99.90;;;;;;4988666;28;20045;-73
2022/06/27 01:32:17;;;;;;;0.00;0.00;;;18.30;99.90;;;;;;4973360;28;20062;-73
2022/06/27 01:34:43;;;;;;;0.00;0.00;;;18.40;99.90;;;;;;4973401;28;20037;-73
2022/06/27 01:37:09;;;;;;;0.00;0.00;;;18.40;99.90;;;;;;4973290;28;20031;-74
2022/06/27 01:39:35;;;;;;;0.00;0.00;;;18.40;99.90;;;;;;4971925;28;20058;-73
2022/06/27 01:42:04;;;;;;;0.00;0.00;;;18.40;99.90;;;;;;4988413;28;20110;-73
2022/06/27 01:44:32;;;;;;;0.00;0.00;;;18.40;99.90;;;;;;4973223;28;20042;-73
2022/06/27 01:47:08;;;;;;;0.68;0.15;;;18.50;99.90;;;;;;4987909;28;20041;-73
2022/06/27 01:49:36;;;;;;;0.00;0.00;;;18.40;99.90;;;;;;4972659;28;20114;-74
2022/06/27 01:52:05;;;;;;;0.00;0.00;;;18.60;99.90;;;;;;4971850;28;20030;-74
2022/06/27 01:54:31;;;;;;;1.88;1.02;;;18.70;99.90;;;;;;4987838;28;20505;-74
2022/06/27 01:56:57;;;;;;;0.13;0.13;;;18.70;99.90;;;;;;4987926;28;20490;-74
2022/06/27 01:59:27;;;;;;;0.20;0.20;;;18.70;99.90;;;;;;4987851;28;20049;-74
2022/06/27 02:01:54;;;;;;;0.13;0.13;;;18.70;99.90;;;;;;4987764;28;20173;-74
2022/06/27 02:04:20;;;;;;;0.00;0.00;;;18.70;99.90;;;;;;4987039;28;20027;-74
2022/06/27 02:06:46;;;;;;;0.00;0.00;;;18.80;99.90;;;;;;4987592;28;20116;-73
2022/06/27 02:09:15;;;;;;;0.60;0.28;;;18.80;99.90;;;;;;4972511;28;20031;-73
2022/06/27 02:11:43;;;;;;;0.03;0.03;;;18.70;99.90;;;;;;4972897;28;20057;-74
2022/06/27 02:14:09;;;;;;;0.10;0.10;;;18.70;99.90;;;;;;4972463;28;20027;-73
2022/06/27 02:16:35;;;;;;;3.63;0.55;;;18.70;99.90;;;;;;4987599;28;20121;-74
2022/06/27 02:19:01;;;;;;;0.00;0.00;;;18.70;99.90;;;;;;4972577;28;20390;-74
2022/06/27 02:21:31;;;;;;;3.00;0.75;;;18.80;99.90;;;;;;4987606;28;20101;-74
2022/06/27 02:23:57;;;;;;;0.00;0.00;;;18.80;99.90;;;;;;4986681;28;20041;-74
2022/06/27 02:26:29;;;;;;;0.00;0.00;;;18.80;99.90;;;;;;4971051;28;20446;-74
2022/06/27 02:28:57;;;;;;;0.15;0.15;;;18.80;99.90;;;;;;4987335;28;20509;-74
2022/06/27 02:31:24;;;;;;;0.10;0.10;;;18.80;99.90;;;;;;4987222;28;20085;-74
2022/06/27 02:33:52;;;;;;;0.00;0.00;;;18.80;99.90;;;;;;4970738;28;20081;-74
2022/06/27 02:36:41;;;;;;;0.20;0.20;;;18.90;99.90;;;;;;4972435;28;20090;-74
2022/06/27 02:39:10;;;;;;;0.08;0.08;;;18.90;99.90;;;;;;4971427;28;20094;-74
2022/06/27 02:41:40;;;;;;;0.28;0.10;;;19.00;99.90;;;;;;4987017;28;20034;-74
2022/06/27 02:44:09;;;;;;;0.47;0.40;;;19.10;99.90;;;;;;4971815;28;20490;-74
2022/06/27 02:46:36;;;;;;;0.10;0.10;;;18.90;99.90;;;;;;4987008;28;20062;-74
2022/06/27 02:49:04;;;;;;;0.28;0.28;;;18.80;99.90;;;;;;4970636;28;20026;-74
2022/06/27 02:51:43;;;;;;;0.10;0.10;;;18.70;99.90;;;;;;4987240;28;20086;-74
2022/06/27 02:54:20;;;;;;;0.10;0.10;;;18.60;99.90;;;;;;4985617;28;20027;-74
2022/06/27 02:56:57;;;;;;;0.20;0.20;;;18.60;99.90;;;;;;4972165;28;20031;-74
2022/06/27 02:59:27;;;;;;;0.43;0.32;;;18.50;99.90;;;;;;4986968;28;20438;-74
2022/06/27 03:01:56;;;;;;;0.00;0.00;;;18.50;99.90;;;;;;4972855;28;20030;-74
2022/06/27 03:04:22;;;;;;;0.10;0.10;;;18.40;99.90;;;;;;4990361;28;20601;-74
2022/06/27 03:06:49;;;;;;;0.00;0.00;;;18.30;99.90;;;;;;4991001;28;20035;-74
2022/06/27 03:09:17;;;;;;;0.20;0.20;;;18.20;99.90;;;;;;4975901;28;20035;-74
2022/06/27 03:11:45;;;;;;;0.10;0.10;;;18.10;99.90;;;;;;4976411;28;20839;-73
2022/06/27 03:14:11;;;;;;;0.15;0.10;;;18.10;99.90;;;;;;4992507;28;20034;-74
2022/06/27 03:16:37;;;;;;;0.10;0.10;;;18.10;99.90;;;;;;4976709;28;20037;-74
2022/06/27 03:19:03;;;;;;;1.05;0.93;;;18.00;99.90;;;;;;4977498;28;20077;-74
2022/06/27 03:21:29;;;;;;;0.20;0.17;;;18.00;99.90;;;;;;4976748;28;20118;-74
2022/06/27 03:23:55;;;;;;;0.00;0.00;;;18.00;99.90;;;;;;4990225;28;20035;-74
2022/06/27 03:26:21;;;;;;;0.00;0.00;;;18.00;99.90;;;;;;4990725;28;20030;-74
2022/06/27 03:28:47;;;;;;;0.10;0.10;;;18.10;99.90;;;;;;4974845;28;20053;-74
2022/06/27 03:31:13;;;;;;;2.08;1.20;;;18.10;99.90;;;;;;4975921;28;20114;-73
2022/06/27 03:33:40;;;;;;;0.00;0.00;;;18.20;99.90;;;;;;4991178;28;20030;-73
2022/06/27 03:36:07;;;;;;;0.30;0.30;;;18.20;99.90;;;;;;4975718;28;20031;-73
2022/06/27 03:38:33;;;;;;;0.00;0.00;;;18.20;99.90;;;;;;4990304;28;20046;-73
2022/06/27 03:41:00;;;;;;;0.10;0.10;;;18.30;99.90;;;;;;4990563;28;20031;-73
2022/06/27 03:43:26;;;;;;;0.55;0.55;;;18.30;99.90;;;;;;4989974;28;20108;-73
2022/06/27 03:45:52;;;;;;;0.20;0.20;;;18.30;99.90;;;;;;4928582;23;20112;-72
2022/06/27 03:51:01;;;;;;;0.63;0.63;;;18.30;99.90;;;;;;4970266;28;20023;-63
2022/06/27 03:53:27;;;;;;;0.13;0.13;;;18.30;99.90;;;;;;4981109;28;20034;-63
2022/06/27 03:55:53;;;;;;;0.55;0.40;;;18.40;99.90;;;;;;4963410;28;20039;-63
2022/06/27 03:58:19;;;;;;;1.08;1.05;;;18.40;99.90;;;;;;4954923;28;20030;-63
2022/06/27 04:00:45;;;;;;;0.17;0.17;;;18.40;99.90;;;;;;4952469;28;20031;-64
2022/06/27 04:03:11;;;;;;;0.38;0.38;;;18.40;99.90;;;;;;4955179;29;20565;-63
2022/06/27 04:05:37;;;;;;;0.85;0.63;;;18.40;99.90;;;;;;4953669;28;20043;-63
2022/06/27 04:08:03;;;;;;;0.40;0.40;;;18.40;99.90;;;;;;4954207;29;20490;-63
2022/06/27 04:10:29;;;;;;;0.20;0.20;;;18.50;99.90;;;;;;4955372;28;20448;-64
2022/06/27 04:12:55;;;;;;;0.82;0.77;;;18.50;99.90;;;;;;4969526;28;20110;-63
2022/06/27 04:15:21;;;;;;;0.28;0.28;;;18.40;99.90;;;;;;4963892;28;20049;-63
2022/06/27 04:17:46;;;;;;;0.40;0.40;;;18.40;99.90;;;;;;4974838;28;20035;-63
2022/06/27 04:20:12;;;;;;;0.70;0.70;;;18.40;99.90;;;;;;4974290;28;20030;-63
2022/06/27 04:22:38;;;;;;;0.63;0.63;;;18.40;99.90;;;;;;4966585;28;20464;-63
2022/06/27 04:25:05;;;;;;;0.65;0.55;;;18.40;99.90;;;;;;4954863;28;20397;-64
2022/06/27 04:27:30;;;;;;;0.35;0.35;;;18.40;99.90;;;;;;4955208;28;20082;-63
2022/06/27 04:29:57;;;;;;;0.45;0.45;;;18.30;99.90;;;;;;4955340;29;20031;-64
2022/06/27 04:32:25;;;;;;;0.10;0.10;;;18.30;99.90;;;;;;4954390;28;20471;-64
2022/06/27 04:34:51;;;;;;;0.20;0.20;;;18.40;99.90;;;;;;4953689;28;20098;-64
2022/06/27 04:37:18;;;;;;;0.17;0.17;;;18.30;99.90;;;;;;4953812;28;20023;-64
2022/06/27 04:39:45;;;;;;;1.38;0.57;;;18.30;99.90;;;;;;4953968;29;20126;-64
2022/06/27 04:42:11;;;;;;;0.32;0.32;;;18.40;99.90;;;;;;4954854;28;20031;-65
2022/06/27 04:44:42;;;;;;;2.22;0.65;;;18.50;99.90;;;;;;4953245;28;20399;-64
2022/06/27 04:47:08;;;;;;;;;;;18.60;99.90;;;;;;4954081;29;20114;-64
2022/06/27 04:49:38;;;;;;;0.20;0.20;;;18.70;99.90;;;;;;4953724;29;19910;-64
2022/06/27 04:52:08;;;;;;;0.20;0.20;;;18.80;99.90;;;;;;4954268;29;20455;-65
2022/06/27 04:54:37;;;;;;;8.38;0.98;;;18.90;99.90;;;;;;4953128;28;20023;-66
2022/06/27 04:57:05;;;;;;;2.42;0.68;;;18.90;99.90;;;;;;4954827;28;20090;-65
2022/06/27 04:59:31;;;;;;;2.10;0.40;;;18.90;99.90;;;;;;4953271;29;20169;-64
2022/06/27 05:01:57;;;;;;;0.63;0.63;;;19.00;99.90;;;;;;4954323;28;20027;-64
2022/06/27 05:04:23;;;;;;;0.90;0.68;;;19.00;99.90;;;;;;4952633;28;20031;-65
2022/06/27 05:06:50;;;;;;;0.63;0.60;;;19.00;99.90;;;;;;4952939;29;20058;-65
2022/06/27 05:09:17;;;;;;;0.28;0.28;;;19.20;99.90;;;;;;4953044;29;20439;-64
2022/06/27 05:11:45;;;;;;;1.30;0.57;;;19.20;99.90;;;;;;4953068;29;20086;-65
2022/06/27 05:14:11;;;;;;;0.60;0.47;;;19.30;99.90;;;;;;4952951;28;20027;-64
2022/06/27 05:16:40;;;;;;;0.08;0.08;;;19.40;99.90;;;;;;4971865;28;20034;-64
2022/06/27 05:19:06;;;;;;;0.00;0.00;;;19.50;99.90;;;;;;4973400;28;20113;-64
2022/06/27 05:21:32;;;;;;;0.40;0.40;;;19.50;99.90;;;;;;4973054;28;20105;-64
2022/06/27 05:23:57;;;;;;;0.13;0.13;;;19.60;99.90;;;;;;4953825;28;20399;-64
2022/06/27 05:26:23;;;;;;;2.58;1.50;;;19.60;99.90;;;;;;4953109;28;20451;-65
2022/06/27 05:28:49;;;;;;;0.40;0.40;;;19.70;99.90;;;;;;4953639;29;20027;-64
2022/06/27 05:31:15;;;;;;;0.35;0.22;;;19.70;99.90;;;;;;4954167;29;20042;-64
2022/06/27 05:33:42;;;;;;;0.15;0.15;;;19.80;99.90;;;;;;4953596;29;20023;-64
2022/06/27 05:36:10;;;;;;;0.08;0.08;;;20.00;99.90;;;;;;4953772;28;20029;-64
2022/06/27 05:38:39;;;;;;;0.25;0.25;;;20.00;99.90;;;;;;4953881;28;20048;-64
2022/06/27 05:41:05;;;;;;;0.10;0.10;;;20.10;99.90;;;;;;4953554;28;20758;-64
2022/06/27 05:43:31;;;;;;;0.20;0.20;;;20.20;99.90;;;;;;4952842;29;20477;-64
2022/06/27 05:45:57;;;;;;;0.10;0.10;;;20.30;99.90;;;;;;4953171;28;20106;-64
2022/06/27 05:48:23;;;;;;;0.38;0.38;;;20.30;99.90;;;;;;4952429;28;20527;-64
2022/06/27 05:50:48;;;;;;;0.47;0.47;;;20.20;99.90;;;;;;4953526;29;20543;-64
2022/06/27 05:53:15;;;;;;;0.17;0.17;;;20.20;99.90;;;;;;4951990;29;20065;-64
2022/06/27 05:55:41;;;;;;;2.88;0.52;;;20.20;99.90;;;;;;4951204;28;20041;-64
2022/06/27 05:58:08;;;;;;;1.88;1.40;;;20.10;99.90;;;;;;4952499;29;20059;-64
2022/06/27 06:00:34;;;;;;;1.27;0.35;;;20.10;99.90;;;;;;4953202;28;20113;-63
2022/06/27 06:03:00;;;;;;;0.13;0.13;;;20.10;99.90;;;;;;4931021;29;20027;-63
2022/06/27 06:05:28;;;;;;;0.55;0.43;;;20.10;99.90;;;;;;4952968;28;20050;-64
2022/06/27 06:07:58;;;;;;;0.38;0.38;;;20.10;99.90;;;;;;4951966;29;20471;-64
2022/06/27 06:10:25;;;;;;;3.13;1.35;;;19.90;99.90;;;;;;4936254;29;20037;-65
2022/06/27 06:12:51;;;;;;;0.40;0.32;;;20.00;99.90;;;;;;4952759;28;20023;-65
2022/06/27 06:15:17;;;;;;;0.00;0.00;;;19.90;99.90;;;;;;4953179;28;20034;-72
2022/06/27 06:17:43;;;;;;;11.27;1.98;;;19.90;99.90;;;;;;4953153;28;20039;-71
2022/06/27 06:20:10;;;;;;;0.10;0.10;;;19.90;99.90;;;;;;4953406;28;20098;-71
2022/06/27 06:22:36;;;;;;;0.10;0.10;;;20.00;99.90;;;;;;4952658;28;20039;-69
2022/06/27 06:25:02;;;;;;;3.00;0.90;;;20.00;99.90;;;;;;4951572;28;20031;-70
2022/06/27 06:27:29;;;;;;;0.00;0.00;;;20.00;99.90;;;;;;4952877;28;20023;-69
2022/06/27 06:29:54;;;;;;;0.15;0.15;;;20.10;99.90;;;;;;4935824;29;20031;-69
2022/06/27 06:32:20;;;;;;;0.20;0.20;;;20.00;99.90;;;;;;4951540;29;20437;-69
2022/06/27 06:34:50;;;;;;;1.60;0.52;;;20.10;99.90;;;;;;4951544;28;20130;-69
2022/06/27 06:37:16;;;;;;;0.00;0.00;;;20.10;99.90;;;;;;4953111;28;20498;-68
2022/06/27 06:39:41;;;;;;;0.05;0.05;;;20.10;99.90;;;;;;4953269;28;20043;-69
2022/06/27 06:42:07;;;;;;;7.22;2.90;;;20.10;99.90;;;;;;4952673;29;20039;-68
2022/06/27 06:44:33;;;;;;;0.50;0.50;;;20.30;99.90;;;;;;4951117;28;20611;-70
2022/06/27 06:46:59;;;;;;;0.22;0.22;;;20.40;99.90;;;;;;4952860;28;20023;-70
2022/06/27 06:49:25;;;;;;;0.03;0.03;;;20.50;99.90;;;;;;4952564;28;20114;-70
2022/06/27 06:51:51;;;;;;;0.20;0.20;;;20.50;99.90;;;;;;4952846;29;20031;-70
2022/06/27 06:54:20;;;;;;;0.57;0.43;;;20.40;99.90;;;;;;4951095;28;20046;-70
2022/06/27 06:56:49;;;;;;;0.45;0.45;;;20.30;99.90;;;;;;4952573;28;20038;-70
2022/06/27 06:59:17;;;;;;;0.00;0.00;;;20.30;99.90;;;;;;4967769;28;20106;-70
2022/06/27 07:01:46;;;;;;;0.10;0.10;;;20.40;99.90;;;;;;4951794;29;20119;-70
2022/06/27 07:04:12;;;;;;;0.20;0.20;;;20.50;99.90;;;;;;4951667;29;20031;-64
2022/06/27 07:06:40;;;;;;;0.90;0.17;;;20.60;99.90;;;;;;4952392;28;20564;-70
2022/06/27 07:09:06;;;;;;;0.20;0.15;;;20.70;99.90;;;;;;4952827;29;20479;-70
2022/06/27 07:11:35;;;;;;;0.10;0.08;;;20.70;99.90;;;;;;4967583;28;20069;-72
2022/06/27 07:14:01;;;;;;;0.00;0.00;;;20.80;99.90;;;;;;4951494;29;20031;-73
2022/06/27 07:16:27;;;;;;;0.00;0.00;;;20.90;99.90;;;;;;4953637;28;20055;-84
2022/06/27 07:18:57;;;;;;;0.00;0.00;;;21.00;99.90;;;;;;4954202;28;20039;-77
2022/06/27 07:21:28;;;;;;;0.32;0.32;;;21.00;99.90;;;;;;4952584;29;20031;-76
2022/06/27 07:23:55;;;;;;;0.10;0.10;;;20.90;99.90;;;;;;4952113;28;20028;-78
2022/06/27 07:26:22;;;;;;;0.17;0.17;;;20.70;99.90;;;;;;4951261;28;20027;-80
2022/06/27 07:28:51;;;;;;;5.43;0.30;;;20.90;99.90;;;;;;4935997;29;20023;-79
2022/06/27 07:31:17;;;;;;;0.00;0.00;;;20.80;99.90;;;;;;4953012;28;20463;-77
2022/06/27 07:33:48;;;;;;;0.30;0.30;;;20.80;99.90;;;;;;4951854;28;20035;-79
2022/06/27 07:36:15;;;;;;;0.50;0.50;;;20.90;99.90;;;;;;4953041;28;20027;-80
2022/06/27 07:38:49;;;;;;;0.52;0.52;;;20.50;99.90;;;;;;4952588;28;20046;-79
2022/06/27 07:41:19;;;;;;;2.58;0.30;;;20.30;99.90;;;;;;4935359;29;20029;-79
2022/06/27 07:43:47;;;;;;;0.03;0.03;;;20.40;99.90;;;;;;4935234;29;20118;-79
2022/06/27 07:46:15;;;;;;;0.17;0.17;;;20.40;99.90;;;;;;4950713;28;20036;-76
2022/06/27 07:48:41;;;;;;;1.00;0.90;;;20.50;99.90;;;;;;4953127;28;20023;-78
2022/06/27 07:51:09;;;;;;;2.03;1.52;;;20.70;99.90;;;;;;4954068;29;20019;-78
2022/06/27 07:53:35;;;;;;;0.38;0.38;;;20.90;99.90;;;;;;4954452;29;20753;-78
2022/06/27 07:56:06;;;;;;;7.25;2.78;;;21.10;99.90;;;;;;4955343;28;20042;-78
2022/06/27 07:58:35;;;;;;;0.55;0.55;;;21.40;99.90;;;;;;4965019;28;20667;-77
2022/06/27 08:01:08;;;;;;;0.50;0.47;;;21.90;99.90;;;;;;4970452;28;20062;-78
2022/06/27 08:03:44;;;;;;;3.55;0.65;;;21.50;99.90;;;;;;4971532;28;20037;-75
2022/06/27 08:06:19;;;;;;;0.20;0.20;;;21.30;99.90;;;;;;4973650;28;20042;-77
2022/06/27 08:09:05;;;;;;;0.10;0.10;;;21.60;99.90;;;;;;4978126;28;20041;-80
2022/06/27 08:11:40;;;;;;;0.38;0.32;;;21.40;99.90;;;;;;4985496;28;20034;-81
2022/06/27 08:14:16;;;;;;;0.10;0.10;;;21.70;99.90;;;;;;4977114;28;20031;-81
2022/06/27 08:16:42;;;;;;;0.00;0.00;;;21.90;99.90;;;;;;4975134;28;20039;-82
2022/06/27 08:19:10;;;;;;;2.08;1.00;;;21.60;99.90;;;;;;4973722;28;20045;-81
2022/06/27 08:21:38;;;;;;;0.52;0.30;;;21.70;99.90;;;;;;4973511;28;20034;-80
2022/06/27 08:24:08;;;;;;;0.25;0.25;;;21.50;99.90;;;;;;4954076;28;20122;-81
2022/06/27 08:26:36;;;;;;;0.00;0.00;;;21.10;99.90;;;;;;4953849;28;20495;-79
2022/06/27 08:29:05;;;;;;;0.00;0.00;;;21.10;99.90;;;;;;4955183;28;20687;-80
2022/06/27 08:31:32;;;;;;;0.32;0.13;;;20.90;99.90;;;;;;4954254;29;20086;-80
2022/06/27 08:34:03;;;;;;;0.30;0.20;;;20.80;99.90;;;;;;4953634;28;20051;-79
2022/06/27 08:36:33;;;;;;;0.30;0.30;;;20.70;99.90;;;;;;4954142;28;20027;-80
2022/06/27 08:39:01;;;;;;;0.00;0.00;;;20.60;99.90;;;;;;4954044;29;20027;-80
2022/06/27 08:41:28;;;;;;;0.00;0.00;;;20.70;99.90;;;;;;4953724;29;20023;-79
2022/06/27 08:44:00;;;;;;;0.60;0.38;;;20.60;99.90;;;;;;4954578;28;20023;-79
2022/06/27 08:46:28;;;;;;;0.28;0.28;;;20.60;99.90;;;;;;4955361;28;20031;-80
2022/06/27 08:48:56;;;;;;;0.10;0.10;;;20.60;99.90;;;;;;4955114;28;20143;-76
2022/06/27 08:51:23;;;;;;;0.00;0.00;;;20.80;99.90;;;;;;4953474;28;20062;-77
2022/06/27 08:53:54;;;;;;;0.13;0.13;;;20.80;99.90;;;;;;4953275;29;20031;-77
2022/06/27 08:56:24;;;;;;;0.40;0.20;;;20.80;99.90;;;;;;4953697;28;20039;-79
2022/06/27 08:58:51;;;;;;;0.40;0.28;;;20.90;99.90;;;;;;4969194;28;20039;-79
2022/06/27 09:01:22;;;;;;;0.13;0.13;;;21.10;99.90;;;;;;4953775;28;20140;-79
2022/06/27 09:04:01;;;;;;;0.00;0.00;;;21.30;99.90;;;;;;4954315;29;20390;-79
2022/06/27 09:06:32;;;;;;;0.00;0.00;;;21.50;99.90;;;;;;4969502;28;20019;-78
2022/06/27 09:09:05;;;;;;;;;;;21.70;99.90;;;;;;4955274;28;20027;-78
2022/06/27 09:11:35;;;;;;;0.05;0.05;;;22.00;99.90;;;;;;4954519;29;20479;-79
2022/06/27 09:14:03;;;;;;;0.25;0.25;;;22.10;99.90;;;;;;4952600;29;20042;-81
2022/06/27 09:16:29;;;;;;;0.20;0.15;;;22.00;99.90;;;;;;4969007;28;20086;-79
2022/06/27 09:18:55;;;;;;;0.08;0.08;;;21.90;99.90;;;;;;4953129;28;20047;-79
2022/06/27 09:21:22;;;;;;;0.32;0.22;;;22.10;99.90;;;;;;4954697;29;20368;-78
2022/06/27 09:23:58;;;;;;;1.17;0.30;;;22.40;99.90;;;;;;4953714;29;20377;-79
2022/06/27 09:26:36;;;;;;;0.00;0.00;;;22.50;99.90;;;;;;4954295;28;20027;-72
2022/06/27 09:29:07;;;;;;;0.00;0.00;;;22.70;99.90;;;;;;4952949;29;20312;-79
2022/06/27 09:31:42;;;;;;;;;;;22.30;99.90;;;;;;4954558;28;20058;-77
2022/06/27 09:34:24;;;;;;;0.10;0.05;;;22.30;99.90;;;;;;4953803;28;20415;-76
2022/06/27 09:37:01;;;;;;;0.00;0.00;;;22.40;99.90;;;;;;4952570;29;20705;-76
2022/06/27 09:39:32;;;;;;;0.08;0.08;;;22.30;99.90;;;;;;4953883;28;20023;-75
2022/06/27 09:42:07;;;;;;;0.08;0.08;;;22.60;99.90;;;;;;4953839;28;20031;-78
2022/06/27 09:44:44;;;;;;;0.00;0.00;;;22.50;99.90;;;;;;4951999;28;20086;-77
2022/06/27 09:47:19;;;;;;;1.15;0.55;;;22.60;99.90;;;;;;5012326;22;20547;-69
2022/06/27 09:49:49;;;;;;;0.00;0.00;;;22.70;99.90;;;;;;5010692;28;20128;-69
2022/06/27 09:52:21;;;;;;;0.03;0.03;;;22.70;99.90;;;;;;5010715;28;20120;-69
2022/06/27 09:54:50;;;;;;;2.38;1.33;;;22.80;99.90;;;;;;5012176;28;20121;-68
2022/06/27 09:57:19;;;;;;;18.30;1.10;;;22.80;99.90;;;;;;4991476;28;20034;-68
2022/06/27 09:59:47;;;;;;;21.90;0.63;;;23.00;99.90;;;;;;4990964;28;20096;-68
2022/06/27 10:02:16;;;;;;;4.15;1.30;;;22.50;99.90;;;;;;4982272;28;20027;-67
2022/06/27 10:04:44;;;;;;;11.70;1.05;;;22.50;99.90;;;;;;4972883;28;20037;-68
2022/06/27 10:07:12;;;;;;;0.40;0.40;;;22.70;99.90;;;;;;4971474;28;20033;-68
2022/06/27 10:09:40;;;;;;;1.08;0.55;;;22.50;99.90;;;;;;4971592;28;20034;-69
2022/06/27 10:12:36;;;;;;;0.35;0.35;;;22.60;99.90;;;;;;4985023;28;20026;-69
2022/06/27 10:15:12;;;;;;;3.50;1.40;;;23.00;99.90;;;;;;5011913;28;20109;-69
2022/06/27 10:17:45;;;;;;;1.10;0.45;;;23.00;99.90;;;;;;5011527;28;20481;-69
2022/06/27 10:20:32;;;;;;;0.22;0.22;;;23.00;99.90;;;;;;5011725;28;20524;-69
2022/06/27 10:23:04;;;;;;;0.00;0.00;;;23.40;99.90;;;;;;5000757;28;20676;-69
2022/06/27 10:25:29;;;;;;;0.05;0.05;;;23.20;99.90;;;;;;4991811;28;20030;-70
2022/06/27 10:28:10;;;;;;;0.95;0.45;;;23.20;99.90;;;;;;4990536;28;20041;-70
2022/06/27 10:30:46;;;;;;;1.25;0.63;;;23.10;99.90;;;;;;4991827;28;20164;-70
2022/06/27 10:33:21;;;;;;;0.13;0.13;;;23.00;99.90;;;;;;4992487;28;20106;-70
2022/06/27 10:36:11;;;;;;;2.20;0.65;;;22.50;99.90;;;;;;5005275;28;20394;-70
2022/06/27 10:38:39;;;;;;;0.05;0.05;;;22.30;99.90;;;;;;5007905;28;20105;-71
2022/06/27 10:41:07;;;;;;;0.00;0.00;;;22.30;99.90;;;;;;5011256;28;20120;-69
2022/06/27 10:43:38;;;;;;;0.30;0.30;;;22.20;99.90;;;;;;5010140;28;20038;-70
2022/06/27 10:46:10;;;;;;;0.32;0.32;;;22.00;99.90;;;;;;5010953;28;20055;-70
2022/06/27 10:48:57;;;;;;;0.20;0.20;;;21.80;99.90;;;;;;5011530;28;20390;-70
2022/06/27 10:51:24;;;;;;;0.10;0.10;;;21.80;99.90;;;;;;5010296;28;20034;-70
2022/06/27 10:54:08;;;;;;;0.10;0.10;;;21.80;99.90;;;;;;4993162;28;20119;-70
2022/06/27 10:56:51;;;;;;;1.38;1.00;;;21.80;99.90;;;;;;4991781;28;20019;-70
2022/06/27 10:59:17;;;;;;;1.25;1.05;;;21.80;99.90;;;;;;4991772;28;20545;-69
2022/06/27 11:01:52;;;;;;;0.00;0.00;;;21.80;99.90;;;;;;4991658;28;20050;-69
2022/06/27 11:04:36;;;;;;;0.20;0.10;;;21.70;99.90;;;;;;4991582;28;20077;-69
2022/06/27 11:07:07;;;;;;;0.00;0.00;;;21.50;99.90;;;;;;4991482;28;20475;-69
2022/06/27 11:09:43;;;;;;;;;;;21.30;99.90;;;;;;4992236;28;20522;-69
2022/06/27 11:12:11;;;;;;;0.00;0.00;;;21.10;99.90;;;;;;4990110;28;19916;-70
2022/06/27 11:14:47;;;;;;;0.22;0.22;;;21.00;99.90;;;;;;4990230;28;20030;-70
2022/06/27 11:17:37;;;;;;;0.28;0.28;;;20.80;99.90;;;;;;4990784;28;20434;-69
2022/06/27 11:20:26;;;;;;;0.10;0.10;;;20.60;99.90;;;;;;4990521;28;20126;-69
2022/06/27 11:23:01;;;;;;;0.52;0.20;;;20.40;99.90;;;;;;4990353;28;20026;-70
2022/06/27 11:25:30;;;;;;;0.17;0.17;;;20.20;99.90;;;;;;4994752;28;20559;-70
2022/06/27 11:31:57;;;;;;;0.20;0.20;;;20.10;99.90;;;;;;4995195;28;20035;-70
2022/06/27 11:33:38;;;;;;;0.05;0.05;;;20.20;99.90;;;;;;4993473;28;20030;-70
2022/06/27 11:36:05;;;;;;;0.10;0.10;;;20.40;99.90;;;;;;4993555;28;20034;-69
2022/06/27 11:38:53;;;;;;;0.38;0.30;;;20.50;99.90;;;;;;4993657;28;20051;-69
2022/06/27 11:41:30;;;;;;;0.43;0.25;;;20.70;99.90;;;;;;4994404;28;20479;-69
2022/06/27 11:44:11;;;;;;;0.00;0.00;;;20.90;99.90;;;;;;4994363;28;20030;-70
2022/06/27 11:46:45;;;;;;;1.50;0.52;;;21.30;99.90;;;;;;4999825;28;20408;-69
2022/06/27 11:49:14;;;;;;;0.28;0.28;;;21.50;99.90;;;;;;4991798;28;20030;-70
2022/06/27 11:51:48;;;;;;;0.10;0.10;;;21.90;99.90;;;;;;4991594;28;20038;-70
2022/06/27 11:54:20;;;;;;;0.00;0.00;;;22.20;99.90;;;;;;4992087;28;20037;-70
2022/06/27 11:56:52;;;;;;;0.25;0.22;;;22.40;99.90;;;;;;4992499;28;20054;-70
2022/06/27 11:59:19;;;;;;;0.57;0.57;;;22.50;99.90;;;;;;4994431;28;20026;-71
2022/06/27 12:01:54;;;;;;;0.00;0.00;;;22.40;99.90;;;;;;4993549;28;20026;-70
2022/06/27 12:04:32;;;;;;;0.10;0.10;;;22.40;99.90;;;;;;4993283;28;20081;-71
2022/06/27 12:07:04;;;;;;;0.10;0.10;;;22.30;99.90;;;;;;4992615;28;20122;-71
2022/06/27 12:09:45;;;;;;;0.08;0.08;;;22.30;99.90;;;;;;4994193;28;20054;-69
2022/06/27 12:12:21;;;;;;;7.28;0.52;;;22.40;99.90;;;;;;4993148;28;20034;-70
2022/06/27 12:14:52;;;;;;;1.75;0.88;;;22.40;99.90;;;;;;4992958;28;20088;-71
2022/06/27 12:17:20;;;;;;;0.00;0.00;;;22.70;99.90;;;;;;4994182;28;20490;-70
2022/06/27 12:19:47;;;;;;;0.45;0.45;;;22.90;99.90;;;;;;4992940;28;20041;-69
2022/06/27 12:22:18;;;;;;;0.00;0.00;;;22.60;99.90;;;;;;4992736;28;20113;-69
2022/06/27 12:24:45;;;;;;;0.65;0.17;;;22.70;99.90;;;;;;4993137;28;20057;-70
2022/06/27 12:27:11;;;;;;;0.10;0.10;;;22.70;99.90;;;;;;4994386;28;20109;-71
2022/06/27 12:29:37;;;;;;;0.00;0.00;;;22.40;99.90;;;;;;4994507;28;20110;-72
2022/06/27 12:32:04;;;;;;;0.10;0.10;;;22.40;99.90;;;;;;4993376;28;20113;-71
2022/06/27 12:34:30;;;;;;;0.00;0.00;;;22.20;99.90;;;;;;4993482;28;20033;-72
2022/06/27 12:36:56;;;;;;;0.65;0.20;;;21.80;99.90;;;;;;4992514;28;20027;-72
2022/06/27 12:39:23;;;;;;;0.00;0.00;;;22.00;99.90;;;;;;4993738;28;20038;-72
2022/06/27 12:41:50;;;;;;;0.00;0.00;;;21.90;99.90;;;;;;4993790;28;20076;-71
2022/06/27 12:44:16;;;;;;;0.00;0.00;;;21.70;99.90;;;;;;4992513;28;20529;-70
2022/06/27 12:46:42;;;;;;;0.00;0.00;;;21.40;99.90;;;;;;4993619;28;20037;-71
2022/06/27 12:49:08;;;;;;;0.32;0.32;;;21.40;99.90;;;;;;4992117;28;20026;-69
2022/06/27 12:51:33;;;;;;;0.00;0.00;;;21.20;99.90;;;;;;4992644;28;20492;-69
2022/06/27 12:54:00;;;;;;;0.00;0.00;;;20.90;99.90;;;;;;4993407;28;20038;-70
2022/06/27 12:56:28;;;;;;;0.08;0.08;;;20.40;99.90;;;;;;4992278;28;20165;-70
2022/06/27 12:58:54;;;;;;;0.00;0.00;;;20.20;99.90;;;;;;4993388;28;20026;-69
2022/06/27 13:01:21;;;;;;;0.03;0.03;;;20.20;99.90;;;;;;4993145;28;20061;-69
2022/06/27 13:03:47;;;;;;;0.00;0.00;;;20.30;99.90;;;;;;4993275;28;20030;-70